sensor_id;sensor_type;location;lat;lon;timestamp;pressure;altitude;pressure_sealevel;temperature;humidity
67840;BME280;54636;51.684;5.142;2022-08-03T00:01:43;101541.59;;;18.72;89.93
67840;BME280;54636;51.684;5.142;2022-08-03T00:04:10;101560.72;;;18.83;90.05
67840;BME280;54636;51.684;5.142;2022-08-03T00:06:36;101550.06;;;18.74;89.92
67840;BME280;54636;51.684;5.142;2022-08-03T00:09:03;101547.31;;;18.74;89.88
67840;BME280;54636;51.684;5.142;2022-08-03T00:11:28;101549.63;;;18.70;90.34
67840;BME280;54636;51.684;5.142;2022-08-03T00:13:53;101543.94;;;18.62;90.38
67840;BME280;54636;51.684;5.142;2022-08-03T00:16:19;101554.97;;;18.62;91.02
67840;BME280;54636;51.684;5.142;2022-08-03T00:18:44;101527.44;;;18.38;90.93
67840;BME280;54636;51.684;5.142;2022-08-03T00:21:10;101548.22;;;18.58;90.73
67840;BME280;54636;51.684;5.142;2022-08-03T00:23:36;101553.50;;;18.56;90.70
67840;BME280;54636;51.684;5.142;2022-08-03T00:26:01;101552.03;;;18.55;90.81
67840;BME280;54636;51.684;5.142;2022-08-03T00:28:27;101551.06;;;18.52;90.87
67840;BME280;54636;51.684;5.142;2022-08-03T00:30:52;101516.56;;;18.27;91.30
67840;BME280;54636;51.684;5.142;2022-08-03T00:33:19;101546.13;;;18.45;91.37
67840;BME280;54636;51.684;5.142;2022-08-03T00:35:45;101540.22;;;18.35;91.28
67840;BME280;54636;51.684;5.142;2022-08-03T00:38:10;101551.41;;;18.43;92.04
67840;BME280;54636;51.684;5.142;2022-08-03T00:40:35;101537.03;;;18.31;91.31
67840;BME280;54636;51.684;5.142;2022-08-03T00:43:03;101547.44;;;18.38;91.50
67840;BME280;54636;51.684;5.142;2022-08-03T00:45:37;101546.47;;;18.36;92.58
67840;BME280;54636;51.684;5.142;2022-08-03T00:48:04;101540.81;;;18.28;92.26
67840;BME280;54636;51.684;5.142;2022-08-03T00:50:33;101551.00;;;18.33;92.73
67840;BME280;54636;51.684;5.142;2022-08-03T00:53:00;101541.78;;;18.31;92.38
67840;BME280;54636;51.684;5.142;2022-08-03T00:55:27;101537.81;;;18.26;92.17
67840;BME280;54636;51.684;5.142;2022-08-03T00:57:52;101520.97;;;18.17;92.00
67840;BME280;54636;51.684;5.142;2022-08-03T01:00:20;101526.69;;;18.19;92.62
67840;BME280;54636;51.684;5.142;2022-08-03T01:02:46;101523.78;;;18.11;92.57
67840;BME280;54636;51.684;5.142;2022-08-03T01:05:14;101534.19;;;18.18;93.86
67840;BME280;54636;51.684;5.142;2022-08-03T01:10:36;101533.22;;;18.16;93.03
67840;BME280;54636;51.684;5.142;2022-08-03T01:13:30;101528.00;;;18.12;92.78
67840;BME280;54636;51.684;5.142;2022-08-03T01:16:05;101516.91;;;17.99;93.37
67840;BME280;54636;51.684;5.142;2022-08-03T01:21:08;101524.84;;;18.02;94.09
67840;BME280;54636;51.684;5.142;2022-08-03T01:27:02;101523.59;;;18.03;93.36
67840;BME280;54636;51.684;5.142;2022-08-03T01:32:20;101523.41;;;17.96;93.74
67840;BME280;54636;51.684;5.142;2022-08-03T01:34:51;101525.94;;;17.94;94.26
67840;BME280;54636;51.684;5.142;2022-08-03T01:37:24;101522.22;;;17.91;94.81
67840;BME280;54636;51.684;5.142;2022-08-03T01:39:53;101519.97;;;17.90;94.55
67840;BME280;54636;51.684;5.142;2022-08-03T01:42:22;101514.75;;;17.86;94.77
67840;BME280;54636;51.684;5.142;2022-08-03T01:44:51;101517.75;;;17.88;94.56
67840;BME280;54636;51.684;5.142;2022-08-03T01:47:19;101520.78;;;17.85;95.24
67840;BME280;54636;51.684;5.142;2022-08-03T01:49:46;101519.63;;;17.74;95.56
67840;BME280;54636;51.684;5.142;2022-08-03T01:52:13;101513.09;;;17.77;95.08
67840;BME280;54636;51.684;5.142;2022-08-03T01:54:43;101508.44;;;17.67;95.40
67840;BME280;54636;51.684;5.142;2022-08-03T01:57:10;101497.97;;;17.60;95.70
67840;BME280;54636;51.684;5.142;2022-08-03T01:59:36;101519.66;;;17.69;96.28
67840;BME280;54636;51.684;5.142;2022-08-03T02:02:04;101513.41;;;17.68;97.04
67840;BME280;54636;51.684;5.142;2022-08-03T02:04:30;101521.91;;;17.65;96.70
67840;BME280;54636;51.684;5.142;2022-08-03T02:06:57;101480.47;;;17.38;97.47
67840;BME280;54636;51.684;5.142;2022-08-03T02:09:24;101499.53;;;17.55;96.79
67840;BME280;54636;51.684;5.142;2022-08-03T02:11:51;101508.97;;;17.60;96.65
67840;BME280;54636;51.684;5.142;2022-08-03T02:14:18;101484.69;;;17.39;96.42
67840;BME280;54636;51.684;5.142;2022-08-03T02:16:44;101496.88;;;17.44;96.96
67840;BME280;54636;51.684;5.142;2022-08-03T02:19:10;101508.56;;;17.50;96.91
67840;BME280;54636;51.684;5.142;2022-08-03T02:21:36;101496.16;;;17.43;97.04
67840;BME280;54636;51.684;5.142;2022-08-03T02:24:03;101509.84;;;17.49;96.65
67840;BME280;54636;51.684;5.142;2022-08-03T02:26:30;101504.16;;;17.41;97.08
67840;BME280;54636;51.684;5.142;2022-08-03T02:29:02;101518.13;;;17.43;97.21
67840;BME280;54636;51.684;5.142;2022-08-03T02:31:32;101494.28;;;17.27;97.33
67840;BME280;54636;51.684;5.142;2022-08-03T02:34:01;101510.66;;;17.38;97.32
67840;BME280;54636;51.684;5.142;2022-08-03T02:36:30;101500.00;;;17.29;97.84
67840;BME280;54636;51.684;5.142;2022-08-03T02:38:59;101494.06;;;17.20;97.98
67840;BME280;54636;51.684;5.142;2022-08-03T02:41:35;101510.75;;;17.27;98.57
67840;BME280;54636;51.684;5.142;2022-08-03T02:44:07;101507.53;;;17.23;98.08
67840;BME280;54636;51.684;5.142;2022-08-03T02:46:36;101492.59;;;17.19;98.15
67840;BME280;54636;51.684;5.142;2022-08-03T02:49:03;101500.31;;;17.20;98.40
67840;BME280;54636;51.684;5.142;2022-08-03T02:51:32;101506.53;;;17.21;98.44
67840;BME280;54636;51.684;5.142;2022-08-03T02:54:01;101495.84;;;17.17;98.80
67840;BME280;54636;51.684;5.142;2022-08-03T02:56:27;101483.91;;;17.09;98.95
67840;BME280;54636;51.684;5.142;2022-08-03T02:58:53;101494.13;;;17.14;99.19
67840;BME280;54636;51.684;5.142;2022-08-03T03:01:21;101482.66;;;17.10;98.97
67840;BME280;54636;51.684;5.142;2022-08-03T03:03:48;101495.13;;;17.11;99.15
67840;BME280;54636;51.684;5.142;2022-08-03T03:06:16;101471.72;;;17.04;98.96
67840;BME280;54636;51.684;5.142;2022-08-03T03:08:42;101478.97;;;17.02;99.36
67840;BME280;54636;51.684;5.142;2022-08-03T03:11:09;101483.69;;;17.07;99.43
67840;BME280;54636;51.684;5.142;2022-08-03T03:13:35;101471.00;;;16.98;99.61
67840;BME280;54636;51.684;5.142;2022-08-03T03:16:03;101463.28;;;16.97;99.75
67840;BME280;54636;51.684;5.142;2022-08-03T03:18:31;101484.16;;;17.11;99.76
67840;BME280;54636;51.684;5.142;2022-08-03T03:20:57;101474.47;;;17.04;100.00
67840;BME280;54636;51.684;5.142;2022-08-03T03:23:24;101473.94;;;17.06;100.00
67840;BME280;54636;51.684;5.142;2022-08-03T03:25:51;101476.44;;;17.09;100.00
67840;BME280;54636;51.684;5.142;2022-08-03T03:28:17;101471.25;;;17.00;100.00
67840;BME280;54636;51.684;5.142;2022-08-03T03:30:42;101475.69;;;17.09;100.00
67840;BME280;54636;51.684;5.142;2022-08-03T03:33:08;101457.84;;;16.91;100.00
67840;BME280;54636;51.684;5.142;2022-08-03T03:35:34;101484.44;;;17.07;100.00
67840;BME280;54636;51.684;5.142;2022-08-03T03:37:59;101467.78;;;16.94;100.00
67840;BME280;54636;51.684;5.142;2022-08-03T03:40:26;101482.97;;;17.01;100.00
67840;BME280;54636;51.684;5.142;2022-08-03T03:42:51;101452.19;;;16.78;100.00
67840;BME280;54636;51.684;5.142;2022-08-03T03:45:18;101471.03;;;16.93;100.00
67840;BME280;54636;51.684;5.142;2022-08-03T03:47:44;101476.53;;;16.93;100.00
67840;BME280;54636;51.684;5.142;2022-08-03T03:50:10;101467.66;;;16.81;100.00
67840;BME280;54636;51.684;5.142;2022-08-03T03:52:35;101478.81;;;16.89;100.00
67840;BME280;54636;51.684;5.142;2022-08-03T03:55:00;101479.34;;;16.87;100.00
67840;BME280;54636;51.684;5.142;2022-08-03T03:57:26;101482.31;;;16.89;100.00
67840;BME280;54636;51.684;5.142;2022-08-03T03:59:52;101476.34;;;16.85;100.00
67840;BME280;54636;51.684;5.142;2022-08-03T04:02:17;101442.78;;;16.62;100.00
67840;BME280;54636;51.684;5.142;2022-08-03T04:04:43;101469.41;;;16.78;100.00
67840;BME280;54636;51.684;5.142;2022-08-03T04:07:27;101475.41;;;16.77;100.00
67840;BME280;54636;51.684;5.142;2022-08-03T04:10:19;101472.16;;;16.78;100.00
67840;BME280;54636;51.684;5.142;2022-08-03T04:13:07;101493.31;;;16.84;100.00
67840;BME280;54636;51.684;5.142;2022-08-03T04:15:38;101472.19;;;16.73;100.00
67840;BME280;54636;51.684;5.142;2022-08-03T04:18:05;101479.63;;;16.78;100.00
67840;BME280;54636;51.684;5.142;2022-08-03T04:20:34;101476.91;;;16.78;100.00
67840;BME280;54636;51.684;5.142;2022-08-03T04:23:02;101482.09;;;16.82;100.00
67840;BME280;54636;51.684;5.142;2022-08-03T04:25:30;101477.59;;;16.84;100.00
67840;BME280;54636;51.684;5.142;2022-08-03T04:27:59;101474.63;;;16.82;100.00
67840;BME280;54636;51.684;5.142;2022-08-03T04:30:28;101481.56;;;16.89;100.00
67840;BME280;54636;51.684;5.142;2022-08-03T04:32:57;101459.72;;;16.72;100.00
67840;BME280;54636;51.684;5.142;2022-08-03T04:35:28;101491.50;;;16.92;100.00
67840;BME280;54636;51.684;5.142;2022-08-03T04:37:56;101458.50;;;16.67;100.00
67840;BME280;54636;51.684;5.142;2022-08-03T04:40:29;101498.97;;;16.97;100.00
67840;BME280;54636;51.684;5.142;2022-08-03T04:42:55;101491.00;;;16.93;100.00
67840;BME280;54636;51.684;5.142;2022-08-03T04:45:21;101492.97;;;17.34;100.00
67840;BME280;54636;51.684;5.142;2022-08-03T04:47:47;101478.06;;;17.84;98.32
67840;BME280;54636;51.684;5.142;2022-08-03T04:50:14;101487.50;;;18.13;95.28
67840;BME280;54636;51.684;5.142;2022-08-03T04:52:40;101499.41;;;18.21;93.74
67840;BME280;54636;51.684;5.142;2022-08-03T04:55:06;101464.38;;;17.78;94.16
67840;BME280;54636;51.684;5.142;2022-08-03T04:57:31;101495.25;;;17.90;94.62
67840;BME280;54636;51.684;5.142;2022-08-03T04:59:57;101466.78;;;17.57;95.41
67840;BME280;54636;51.684;5.142;2022-08-03T05:02:22;101509.09;;;17.78;96.14
67840;BME280;54636;51.684;5.142;2022-08-03T05:04:49;101497.44;;;17.67;96.03
67840;BME280;54636;51.684;5.142;2022-08-03T05:07:15;101503.94;;;17.69;97.20
67840;BME280;54636;51.684;5.142;2022-08-03T05:09:42;101523.28;;;17.83;96.86
67840;BME280;54636;51.684;5.142;2022-08-03T05:12:07;101514.47;;;17.90;97.10
67840;BME280;54636;51.684;5.142;2022-08-03T05:14:34;101484.34;;;17.78;96.48
67840;BME280;54636;51.684;5.142;2022-08-03T05:17:03;101507.09;;;18.03;95.99
67840;BME280;54636;51.684;5.142;2022-08-03T05:19:28;101511.00;;;18.32;95.68
67840;BME280;54636;51.684;5.142;2022-08-03T05:21:54;101528.19;;;18.63;93.83
67840;BME280;54636;51.684;5.142;2022-08-03T05:24:20;101508.75;;;18.55;93.67
67840;BME280;54636;51.684;5.142;2022-08-03T05:26:45;101519.00;;;18.55;93.74
67840;BME280;54636;51.684;5.142;2022-08-03T05:29:10;101521.75;;;18.55;93.87
67840;BME280;54636;51.684;5.142;2022-08-03T05:31:36;101489.25;;;18.53;93.36
67840;BME280;54636;51.684;5.142;2022-08-03T05:34:01;101532.88;;;18.87;92.26
67840;BME280;54636;51.684;5.142;2022-08-03T05:36:26;101542.59;;;18.88;92.44
67840;BME280;54636;51.684;5.142;2022-08-03T05:38:52;101530.63;;;18.85;92.10
67840;BME280;54636;51.684;5.142;2022-08-03T05:41:18;101532.44;;;18.83;93.09
67840;BME280;54636;51.684;5.142;2022-08-03T05:43:44;101531.31;;;18.72;92.59
67840;BME280;54636;51.684;5.142;2022-08-03T05:46:09;101500.16;;;18.64;92.73
67840;BME280;54636;51.684;5.142;2022-08-03T05:48:35;101500.91;;;18.65;92.86
67840;BME280;54636;51.684;5.142;2022-08-03T05:51:00;101537.03;;;18.93;92.77
67840;BME280;54636;51.684;5.142;2022-08-03T05:53:25;101532.50;;;18.96;92.49
67840;BME280;54636;51.684;5.142;2022-08-03T05:55:51;101498.28;;;18.72;91.49
67840;BME280;54636;51.684;5.142;2022-08-03T05:58:16;101535.69;;;19.00;92.43
67840;BME280;54636;51.684;5.142;2022-08-03T06:00:42;101525.50;;;18.95;92.75
67840;BME280;54636;51.684;5.142;2022-08-03T06:03:07;101538.59;;;19.07;91.81
67840;BME280;54636;51.684;5.142;2022-08-03T06:05:33;101530.41;;;19.02;91.86
67840;BME280;54636;51.684;5.142;2022-08-03T06:08:03;101533.81;;;19.08;91.57
67840;BME280;54636;51.684;5.142;2022-08-03T06:10:29;101534.50;;;19.14;91.84
67840;BME280;54636;51.684;5.142;2022-08-03T06:12:54;101535.91;;;19.21;91.70
67840;BME280;54636;51.684;5.142;2022-08-03T06:15:20;101498.84;;;19.03;90.95
67840;BME280;54636;51.684;5.142;2022-08-03T06:17:49;101534.25;;;19.31;90.70
67840;BME280;54636;51.684;5.142;2022-08-03T06:20:19;101539.66;;;19.36;89.88
67840;BME280;54636;51.684;5.142;2022-08-03T06:22:48;101541.28;;;19.45;89.90
67840;BME280;54636;51.684;5.142;2022-08-03T06:25:13;101513.38;;;19.35;89.36
67840;BME280;54636;51.684;5.142;2022-08-03T06:27:38;101524.97;;;19.47;88.71
67840;BME280;54636;51.684;5.142;2022-08-03T06:30:06;101536.47;;;19.64;88.00
67840;BME280;54636;51.684;5.142;2022-08-03T06:32:32;101530.75;;;19.62;88.01
67840;BME280;54636;51.684;5.142;2022-08-03T06:34:58;101537.34;;;19.72;87.38
67840;BME280;54636;51.684;5.142;2022-08-03T06:37:24;101530.13;;;19.69;87.31
67840;BME280;54636;51.684;5.142;2022-08-03T06:39:51;101548.41;;;19.86;87.19
67840;BME280;54636;51.684;5.142;2022-08-03T06:42:16;101548.72;;;19.95;86.48
67840;BME280;54636;51.684;5.142;2022-08-03T06:44:42;101542.59;;;20.02;86.09
67840;BME280;54636;51.684;5.142;2022-08-03T06:47:07;101546.72;;;20.09;85.52
67840;BME280;54636;51.684;5.142;2022-08-03T06:49:32;101517.66;;;19.95;85.43
67840;BME280;54636;51.684;5.142;2022-08-03T06:51:58;101541.81;;;20.15;84.08
67840;BME280;54636;51.684;5.142;2022-08-03T06:54:23;101550.84;;;20.29;84.26
67840;BME280;54636;51.684;5.142;2022-08-03T06:56:49;101540.25;;;20.33;83.66
67840;BME280;54636;51.684;5.142;2022-08-03T06:59:14;101542.06;;;20.57;83.37
67840;BME280;54636;51.684;5.142;2022-08-03T07:01:43;101546.47;;;21.07;79.94
67840;BME280;54636;51.684;5.142;2022-08-03T07:04:08;101542.44;;;21.21;78.87
67840;BME280;54636;51.684;5.142;2022-08-03T07:06:34;101560.81;;;22.02;77.19
67840;BME280;54636;51.684;5.142;2022-08-03T07:08:59;101554.25;;;23.00;71.35
67840;BME280;54636;51.684;5.142;2022-08-03T07:11:26;101537.16;;;23.70;68.30
67840;BME280;54636;51.684;5.142;2022-08-03T07:13:52;101566.63;;;24.44;66.16
67840;BME280;54636;51.684;5.142;2022-08-03T07:16:18;101558.22;;;24.67;64.04
67840;BME280;54636;51.684;5.142;2022-08-03T07:18:43;101562.19;;;24.81;63.23
67840;BME280;54636;51.684;5.142;2022-08-03T07:21:08;101570.84;;;24.92;63.23
67840;BME280;54636;51.684;5.142;2022-08-03T07:23:35;101559.59;;;24.83;63.24
67840;BME280;54636;51.684;5.142;2022-08-03T07:26:00;101569.63;;;24.78;62.83
67840;BME280;54636;51.684;5.142;2022-08-03T07:28:26;101569.53;;;24.61;63.60
67840;BME280;54636;51.684;5.142;2022-08-03T07:30:52;101557.03;;;24.37;64.10
67840;BME280;54636;51.684;5.142;2022-08-03T07:33:17;101572.97;;;24.29;63.96
67840;BME280;54636;51.684;5.142;2022-08-03T07:35:42;101578.16;;;24.10;65.39
67840;BME280;54636;51.684;5.142;2022-08-03T07:38:08;101577.09;;;23.97;65.63
67840;BME280;54636;51.684;5.142;2022-08-03T07:40:33;101572.84;;;23.66;66.07
67840;BME280;54636;51.684;5.142;2022-08-03T07:42:59;101522.31;;;23.14;67.33
67840;BME280;54636;51.684;5.142;2022-08-03T07:45:24;101549.50;;;23.31;68.22
67840;BME280;54636;51.684;5.142;2022-08-03T07:47:50;101570.94;;;23.46;67.12
67840;BME280;54636;51.684;5.142;2022-08-03T07:50:16;101555.81;;;23.31;68.08
67840;BME280;54636;51.684;5.142;2022-08-03T07:52:41;101551.00;;;23.32;67.87
67840;BME280;54636;51.684;5.142;2022-08-03T07:55:13;101560.03;;;23.40;67.40
67840;BME280;54636;51.684;5.142;2022-08-03T07:57:38;101562.06;;;23.47;67.72
67840;BME280;54636;51.684;5.142;2022-08-03T08:00:06;101558.41;;;23.60;67.29
67840;BME280;54636;51.684;5.142;2022-08-03T08:02:33;101568.22;;;23.76;68.30
67840;BME280;54636;51.684;5.142;2022-08-03T08:04:58;101571.91;;;23.86;67.29
67840;BME280;54636;51.684;5.142;2022-08-03T08:07:24;101555.63;;;23.90;66.25
67840;BME280;54636;51.684;5.142;2022-08-03T08:09:50;101567.44;;;24.06;66.03
67840;BME280;54636;51.684;5.142;2022-08-03T08:12:15;101569.63;;;24.23;65.19
67840;BME280;54636;51.684;5.142;2022-08-03T08:14:41;101560.91;;;24.34;64.18
67840;BME280;54636;51.684;5.142;2022-08-03T08:17:09;101569.78;;;24.48;64.14
67840;BME280;54636;51.684;5.142;2022-08-03T08:19:35;101562.16;;;24.56;64.14
67840;BME280;54636;51.684;5.142;2022-08-03T08:22:00;101560.59;;;24.70;64.06
67840;BME280;54636;51.684;5.142;2022-08-03T08:24:26;101555.91;;;24.80;62.52
67840;BME280;54636;51.684;5.142;2022-08-03T08:26:51;101547.94;;;24.84;62.60
67840;BME280;54636;51.684;5.142;2022-08-03T08:29:16;101556.00;;;25.05;62.34
67840;BME280;54636;51.684;5.142;2022-08-03T08:31:44;101560.31;;;25.23;60.90
67840;BME280;54636;51.684;5.142;2022-08-03T08:34:09;101560.75;;;25.37;61.29
67840;BME280;54636;51.684;5.142;2022-08-03T08:36:34;101546.63;;;25.43;61.65
67840;BME280;54636;51.684;5.142;2022-08-03T08:39:00;101561.22;;;25.76;59.86
67840;BME280;54636;51.684;5.142;2022-08-03T08:41:26;101563.22;;;25.83;58.80
67840;BME280;54636;51.684;5.142;2022-08-03T08:43:53;101559.78;;;25.92;58.72
67840;BME280;54636;51.684;5.142;2022-08-03T08:46:19;101513.25;;;25.68;57.93
67840;BME280;54636;51.684;5.142;2022-08-03T08:48:45;101556.41;;;26.11;57.17
67840;BME280;54636;51.684;5.142;2022-08-03T08:51:12;101535.16;;;25.88;57.04
67840;BME280;54636;51.684;5.142;2022-08-03T08:53:43;101561.19;;;26.18;57.46
67840;BME280;54636;51.684;5.142;2022-08-03T08:56:11;101557.81;;;26.19;57.16
67840;BME280;54636;51.684;5.142;2022-08-03T08:58:46;101555.47;;;26.33;57.10
67840;BME280;54636;51.684;5.142;2022-08-03T09:01:13;101565.13;;;26.49;55.43
67840;BME280;54636;51.684;5.142;2022-08-03T09:03:38;101549.47;;;26.54;55.40
67840;BME280;54636;51.684;5.142;2022-08-03T09:06:05;101554.81;;;26.69;56.02
67840;BME280;54636;51.684;5.142;2022-08-03T09:08:32;101552.25;;;26.81;54.51
67840;BME280;54636;51.684;5.142;2022-08-03T09:10:57;101542.44;;;26.80;53.12
67840;BME280;54636;51.684;5.142;2022-08-03T09:13:23;101532.97;;;26.92;53.85
67840;BME280;54636;51.684;5.142;2022-08-03T09:18:43;101537.88;;;27.02;52.41
67840;BME280;54636;51.684;5.142;2022-08-03T09:21:20;101562.81;;;27.36;52.70
67840;BME280;54636;51.684;5.142;2022-08-03T09:23:48;101562.84;;;27.46;50.88
67840;BME280;54636;51.684;5.142;2022-08-03T09:26:25;101569.94;;;27.56;50.90
67840;BME280;54636;51.684;5.142;2022-08-03T09:29:09;101557.56;;;27.50;51.77
67840;BME280;54636;51.684;5.142;2022-08-03T09:31:37;101569.09;;;27.64;49.77
67840;BME280;54636;51.684;5.142;2022-08-03T09:34:05;101567.81;;;27.74;49.42
67840;BME280;54636;51.684;5.142;2022-08-03T09:39:06;101547.41;;;27.81;49.70
67840;BME280;54636;51.684;5.142;2022-08-03T09:41:32;101559.59;;;28.05;49.56
67840;BME280;54636;51.684;5.142;2022-08-03T09:43:58;101562.09;;;28.11;47.63
67840;BME280;54636;51.684;5.142;2022-08-03T09:46:24;101560.91;;;28.14;46.93
67840;BME280;54636;51.684;5.142;2022-08-03T09:48:49;101569.03;;;28.39;47.34
67840;BME280;54636;51.684;5.142;2022-08-03T09:51:14;101564.31;;;28.51;46.39
67840;BME280;54636;51.684;5.142;2022-08-03T09:53:44;101570.91;;;28.65;46.72
67840;BME280;54636;51.684;5.142;2022-08-03T09:56:10;101562.66;;;28.67;46.82
67840;BME280;54636;51.684;5.142;2022-08-03T09:58:44;101559.56;;;28.73;46.97
67840;BME280;54636;51.684;5.142;2022-08-03T10:01:11;101562.94;;;28.81;45.44
67840;BME280;54636;51.684;5.142;2022-08-03T10:03:38;101554.72;;;28.83;44.58
67840;BME280;54636;51.684;5.142;2022-08-03T10:06:15;101558.06;;;28.91;46.42
67840;BME280;54636;51.684;5.142;2022-08-03T10:08:41;101566.72;;;29.05;44.25
67840;BME280;54636;51.684;5.142;2022-08-03T10:11:06;101562.56;;;29.15;44.70
67840;BME280;54636;51.684;5.142;2022-08-03T10:13:32;101572.63;;;29.30;43.69
67840;BME280;54636;51.684;5.142;2022-08-03T10:15:57;101563.03;;;29.33;44.75
67840;BME280;54636;51.684;5.142;2022-08-03T10:18:23;101556.41;;;29.38;43.46
67840;BME280;54636;51.684;5.142;2022-08-03T10:20:51;101555.66;;;29.38;43.59
67840;BME280;54636;51.684;5.142;2022-08-03T10:23:17;101569.66;;;29.38;42.82
67840;BME280;54636;51.684;5.142;2022-08-03T10:25:45;101565.50;;;29.48;41.41
67840;BME280;54636;51.684;5.142;2022-08-03T10:28:17;101552.38;;;29.51;42.57
67840;BME280;54636;51.684;5.142;2022-08-03T10:30:47;101549.44;;;29.49;43.07
67840;BME280;54636;51.684;5.142;2022-08-03T10:33:17;101551.88;;;29.64;42.30
67840;BME280;54636;51.684;5.142;2022-08-03T10:35:44;101554.47;;;29.72;42.18
67840;BME280;54636;51.684;5.142;2022-08-03T10:38:36;101554.41;;;29.81;42.34
67840;BME280;54636;51.684;5.142;2022-08-03T10:41:02;101549.81;;;29.86;41.49
67840;BME280;54636;51.684;5.142;2022-08-03T10:43:45;101543.84;;;29.92;42.28
67840;BME280;54636;51.684;5.142;2022-08-03T10:46:15;101543.97;;;29.94;40.97
67840;BME280;54636;51.684;5.142;2022-08-03T10:48:43;101546.00;;;30.03;40.87
67840;BME280;54636;51.684;5.142;2022-08-03T10:51:08;101539.66;;;30.02;40.35
67840;BME280;54636;51.684;5.142;2022-08-03T10:53:39;101544.09;;;29.96;41.05
67840;BME280;54636;51.684;5.142;2022-08-03T11:00:02;101519.31;;;30.02;41.92
67840;BME280;54636;51.684;5.142;2022-08-03T11:02:03;101543.03;;;30.22;41.00
67840;BME280;54636;51.684;5.142;2022-08-03T11:04:32;101538.94;;;30.35;40.80
67840;BME280;54636;51.684;5.142;2022-08-03T11:09:44;101523.00;;;30.37;41.06
67840;BME280;54636;51.684;5.142;2022-08-03T11:12:24;101538.13;;;30.56;41.30
67840;BME280;54636;51.684;5.142;2022-08-03T11:14:52;101530.47;;;30.56;39.82
67840;BME280;54636;51.684;5.142;2022-08-03T11:17:17;101520.50;;;30.65;40.43
67840;BME280;54636;51.684;5.142;2022-08-03T11:19:45;101534.19;;;30.82;40.81
67840;BME280;54636;51.684;5.142;2022-08-03T11:22:11;101507.47;;;30.69;40.08
67840;BME280;54636;51.684;5.142;2022-08-03T11:27:30;101533.34;;;30.79;39.33
67840;BME280;54636;51.684;5.142;2022-08-03T11:35:07;101534.56;;;31.00;39.89
67840;BME280;54636;51.684;5.142;2022-08-03T11:37:33;101523.47;;;30.90;39.40
67840;BME280;54636;51.684;5.142;2022-08-03T11:39:59;101527.13;;;31.04;40.22
67840;BME280;54636;51.684;5.142;2022-08-03T11:42:37;101525.44;;;31.11;40.15
67840;BME280;54636;51.684;5.142;2022-08-03T11:45:06;101516.28;;;31.10;39.52
67840;BME280;54636;51.684;5.142;2022-08-03T11:47:35;101530.09;;;31.18;40.08
67840;BME280;54636;51.684;5.142;2022-08-03T11:50:00;101528.03;;;31.19;40.08
67840;BME280;54636;51.684;5.142;2022-08-03T11:52:26;101528.75;;;31.19;39.23
67840;BME280;54636;51.684;5.142;2022-08-03T11:54:58;101510.44;;;31.06;38.71
67840;BME280;54636;51.684;5.142;2022-08-03T11:57:30;101511.03;;;30.93;39.04
67840;BME280;54636;51.684;5.142;2022-08-03T11:59:56;101525.41;;;30.88;39.47
67840;BME280;54636;51.684;5.142;2022-08-03T12:02:22;101529.56;;;30.87;39.96
67840;BME280;54636;51.684;5.142;2022-08-03T12:04:57;101528.59;;;30.82;40.11
67840;BME280;54636;51.684;5.142;2022-08-03T12:07:25;101512.84;;;30.77;41.32
67840;BME280;54636;51.684;5.142;2022-08-03T12:10:12;101512.34;;;30.69;40.51
67840;BME280;54636;51.684;5.142;2022-08-03T12:12:39;101517.56;;;30.63;40.77
67840;BME280;54636;51.684;5.142;2022-08-03T12:15:05;101527.59;;;30.77;40.86
67840;BME280;54636;51.684;5.142;2022-08-03T12:17:38;101519.41;;;30.70;40.71
67840;BME280;54636;51.684;5.142;2022-08-03T12:20:07;101516.50;;;30.68;42.15
67840;BME280;54636;51.684;5.142;2022-08-03T12:22:34;101524.81;;;30.89;41.34
67840;BME280;54636;51.684;5.142;2022-08-03T12:25:02;101517.97;;;30.92;40.89
67840;BME280;54636;51.684;5.142;2022-08-03T12:27:27;101510.78;;;30.89;40.43
67840;BME280;54636;51.684;5.142;2022-08-03T12:29:56;101512.00;;;31.09;41.49
67840;BME280;54636;51.684;5.142;2022-08-03T12:32:23;101513.84;;;31.05;40.68
67840;BME280;54636;51.684;5.142;2022-08-03T12:34:50;101478.94;;;30.73;41.14
67840;BME280;54636;51.684;5.142;2022-08-03T12:37:20;101498.84;;;30.89;41.57
67840;BME280;54636;51.684;5.142;2022-08-03T12:39:54;101514.94;;;31.00;41.79
67840;BME280;54636;51.684;5.142;2022-08-03T12:42:20;101520.78;;;31.04;41.19
67840;BME280;54636;51.684;5.142;2022-08-03T12:44:46;101502.84;;;30.86;42.19
67840;BME280;54636;51.684;5.142;2022-08-03T12:47:13;101521.03;;;30.96;42.21
67840;BME280;54636;51.684;5.142;2022-08-03T12:49:47;101518.59;;;31.02;42.10
67840;BME280;54636;51.684;5.142;2022-08-03T12:52:14;101519.44;;;30.93;41.36
67840;BME280;54636;51.684;5.142;2022-08-03T12:54:40;101517.00;;;30.88;41.29
67840;BME280;54636;51.684;5.142;2022-08-03T12:57:10;101521.25;;;30.77;41.96
67840;BME280;54636;51.684;5.142;2022-08-03T12:59:40;101519.44;;;30.82;41.88
67840;BME280;54636;51.684;5.142;2022-08-03T13:02:26;101509.94;;;30.87;41.48
67840;BME280;54636;51.684;5.142;2022-08-03T13:04:53;101520.16;;;30.82;41.62
67840;BME280;54636;51.684;5.142;2022-08-03T13:07:19;101513.94;;;30.84;42.98
67840;BME280;54636;51.684;5.142;2022-08-03T13:09:50;101498.47;;;30.83;42.91
67840;BME280;54636;51.684;5.142;2022-08-03T13:12:24;101505.06;;;31.10;42.88
67840;BME280;54636;51.684;5.142;2022-08-03T13:14:53;101508.34;;;31.30;41.54
67840;BME280;54636;51.684;5.142;2022-08-03T13:17:19;101515.16;;;31.39;42.54
67840;BME280;54636;51.684;5.142;2022-08-03T13:19:45;101509.69;;;31.29;42.07
67840;BME280;54636;51.684;5.142;2022-08-03T13:22:12;101504.44;;;31.35;40.53